Terminal Aerodrome Forecast
Issued by NWS Cleveland, OH

Home | Current Version | Previous Version | Graphics & Text | Print | Product List | Glossary Off
Versions: 1 2 3 4 5 6 7 8 9 10 11 12 13 14 15 16 17

000
FTUS41 KCLE 301700
TAFMFD
TAF
KMFD 301731Z 3018/3118 19010G20KT P6SM SCT060 BKN120
     FM302000 20015G24KT P6SM VCTS BKN060CB
     FM310500 21008KT P6SM -SHRA VCTS SCT030CB OVC120
     FM310900 23008KT 4SM -TSRA BR OVC025CB=

USA.gov is the U.S. government's official web portal to all federal, state and local government web resources and services.